sensor_id;sensor_type;location;lat;lon;timestamp;pressure;altitude;pressure_sealevel;temperature;humidity
54329;BME280;40710;51.120;13.136;2023-04-01T00:01:58;97635.69;;;11.38;70.34
54329;BME280;40710;51.120;13.136;2023-04-01T00:04:23;97640.31;;;11.46;71.86
54329;BME280;40710;51.120;13.136;2023-04-01T00:06:47;97632.03;;;12.62;67.63
54329;BME280;40710;51.120;13.136;2023-04-01T00:09:12;97648.56;;;11.41;71.44
54329;BME280;40710;51.120;13.136;2023-04-01T00:11:36;97641.91;;;11.37;71.22
54329;BME280;40710;51.120;13.136;2023-04-01T00:14:01;97641.84;;;11.79;70.75
54329;BME280;40710;51.120;13.136;2023-04-01T00:16:25;97635.19;;;11.75;70.26
54329;BME280;40710;51.120;13.136;2023-04-01T00:18:51;97632.06;;;12.22;69.61
54329;BME280;40710;51.120;13.136;2023-04-01T00:21:16;97648.28;;;11.34;71.09
54329;BME280;40710;51.120;13.136;2023-04-01T00:23:40;97640.09;;;11.59;71.14
54329;BME280;40710;51.120;13.136;2023-04-01T00:26:05;97652.03;;;11.00;72.87
54329;BME280;40710;51.120;13.136;2023-04-01T00:28:30;97653.06;;;11.50;72.31
54329;BME280;40710;51.120;13.136;2023-04-01T00:30:55;97645.75;;;10.91;73.81
54329;BME280;40710;51.120;13.136;2023-04-01T00:33:20;97630.34;;;12.01;71.16
54329;BME280;40710;51.120;13.136;2023-04-01T00:35:44;97641.91;;;11.58;71.44
54329;BME280;40710;51.120;13.136;2023-04-01T00:38:09;97646.19;;;10.96;73.44
54329;BME280;40710;51.120;13.136;2023-04-01T00:40:38;97636.75;;;11.57;72.02
54329;BME280;40710;51.120;13.136;2023-04-01T00:43:13;97627.03;;;11.47;71.58
54329;BME280;40710;51.120;13.136;2023-04-01T00:45:41;97634.41;;;11.53;71.17
54329;BME280;40710;51.120;13.136;2023-04-01T00:48:28;97635.28;;;11.64;70.68
54329;BME280;40710;51.120;13.136;2023-04-01T00:51:09;97629.78;;;11.98;70.47
54329;BME280;40710;51.120;13.136;2023-04-01T00:53:40;97621.03;;;12.47;68.87
54329;BME280;40710;51.120;13.136;2023-04-01T00:56:18;97627.47;;;11.52;70.28
54329;BME280;40710;51.120;13.136;2023-04-01T00:58:54;97630.44;;;11.69;70.80
54329;BME280;40710;51.120;13.136;2023-04-01T01:01:23;97639.41;;;11.87;71.03
54329;BME280;40710;51.120;13.136;2023-04-01T01:03:48;97626.44;;;11.65;70.17
54329;BME280;40710;51.120;13.136;2023-04-01T01:09:06;97633.44;;;11.54;70.91
54329;BME280;40710;51.120;13.136;2023-04-01T01:11:42;97622.69;;;12.39;69.07
54329;BME280;40710;51.120;13.136;2023-04-01T01:17:26;97629.34;;;11.93;69.56
54329;BME280;40710;51.120;13.136;2023-04-01T01:26:24;97645.00;;;11.21;71.39
54329;BME280;40710;51.120;13.136;2023-04-01T01:32:06;97630.69;;;11.14;71.36
54329;BME280;40710;51.120;13.136;2023-04-01T01:37:17;97611.00;;;12.22;68.41
54329;BME280;40710;51.120;13.136;2023-04-01T01:39:51;97603.59;;;12.76;66.86
54329;BME280;40710;51.120;13.136;2023-04-01T01:42:20;97617.53;;;11.87;68.35
54329;BME280;40710;51.120;13.136;2023-04-01T01:44:48;97626.66;;;11.52;70.44
54329;BME280;40710;51.120;13.136;2023-04-01T01:47:17;97622.56;;;11.69;69.75
54329;BME280;40710;51.120;13.136;2023-04-01T01:49:44;97630.16;;;11.41;71.19
54329;BME280;40710;51.120;13.136;2023-04-01T01:52:10;97634.22;;;11.03;71.80
54329;BME280;40710;51.120;13.136;2023-04-01T01:54:35;97625.66;;;12.05;70.14
54329;BME280;40710;51.120;13.136;2023-04-01T01:57:06;97626.84;;;11.18;70.94
54329;BME280;40710;51.120;13.136;2023-04-01T01:59:36;97637.81;;;11.23;71.85
54329;BME280;40710;51.120;13.136;2023-04-01T02:02:02;97631.72;;;11.44;70.93
54329;BME280;40710;51.120;13.136;2023-04-01T02:04:32;97621.81;;;11.57;70.01
54329;BME280;40710;51.120;13.136;2023-04-01T02:07:02;97629.41;;;11.29;70.58
54329;BME280;40710;51.120;13.136;2023-04-01T02:09:29;97633.97;;;11.06;71.23
54329;BME280;40710;51.120;13.136;2023-04-01T02:12:07;97621.13;;;11.34;71.14
54329;BME280;40710;51.120;13.136;2023-04-01T02:14:43;97617.69;;;12.36;68.83
54329;BME280;40710;51.120;13.136;2023-04-01T02:17:21;97624.22;;;12.01;68.90
54329;BME280;40710;51.120;13.136;2023-04-01T02:19:53;97622.66;;;11.58;69.72
54329;BME280;40710;51.120;13.136;2023-04-01T02:22:23;97624.97;;;11.30;70.87
54329;BME280;40710;51.120;13.136;2023-04-01T02:24:52;97624.16;;;11.50;70.16
54329;BME280;40710;51.120;13.136;2023-04-01T02:27:19;97615.72;;;11.57;69.90
54329;BME280;40710;51.120;13.136;2023-04-01T02:29:44;97613.78;;;11.59;70.07
54329;BME280;40710;51.120;13.136;2023-04-01T02:32:10;97615.72;;;11.57;70.03
54329;BME280;40710;51.120;13.136;2023-04-01T02:34:35;97623.44;;;11.48;70.02
54329;BME280;40710;51.120;13.136;2023-04-01T02:37:00;97628.13;;;11.24;70.63
54329;BME280;40710;51.120;13.136;2023-04-01T02:39:25;97634.81;;;11.59;69.99
54329;BME280;40710;51.120;13.136;2023-04-01T02:41:50;97629.84;;;11.86;69.47
54329;BME280;40710;51.120;13.136;2023-04-01T02:44:15;97639.47;;;11.76;69.88
54329;BME280;40710;51.120;13.136;2023-04-01T02:46:40;97639.84;;;11.41;70.11
54329;BME280;40710;51.120;13.136;2023-04-01T02:49:05;97642.34;;;11.42;69.65
54329;BME280;40710;51.120;13.136;2023-04-01T02:51:30;97639.22;;;11.48;69.79
54329;BME280;40710;51.120;13.136;2023-04-01T02:53:54;97635.56;;;11.91;69.26
54329;BME280;40710;51.120;13.136;2023-04-01T02:56:19;97627.22;;;12.17;67.93
54329;BME280;40710;51.120;13.136;2023-04-01T02:58:44;97642.53;;;11.71;69.02
54329;BME280;40710;51.120;13.136;2023-04-01T03:01:08;97643.91;;;11.76;68.65
54329;BME280;40710;51.120;13.136;2023-04-01T03:03:33;97645.81;;;11.43;69.78
54329;BME280;40710;51.120;13.136;2023-04-01T03:05:57;97641.13;;;11.46;68.88
54329;BME280;40710;51.120;13.136;2023-04-01T03:08:24;97647.16;;;11.37;69.61
54329;BME280;40710;51.120;13.136;2023-04-01T03:10:48;97640.38;;;11.56;68.56
54329;BME280;40710;51.120;13.136;2023-04-01T03:13:13;97645.34;;;11.16;69.77
54329;BME280;40710;51.120;13.136;2023-04-01T03:15:37;97638.13;;;11.51;69.51
54329;BME280;40710;51.120;13.136;2023-04-01T03:18:02;97630.41;;;12.30;66.78
54329;BME280;40710;51.120;13.136;2023-04-01T03:20:27;97624.16;;;12.12;67.18
54329;BME280;40710;51.120;13.136;2023-04-01T03:22:52;97629.72;;;12.28;67.27
54329;BME280;40710;51.120;13.136;2023-04-01T03:25:17;97634.31;;;12.26;66.49
54329;BME280;40710;51.120;13.136;2023-04-01T03:27:42;97643.09;;;11.75;66.53
54329;BME280;40710;51.120;13.136;2023-04-01T03:30:07;97633.53;;;11.74;66.84
54329;BME280;40710;51.120;13.136;2023-04-01T03:32:31;97637.00;;;11.96;67.39
54329;BME280;40710;51.120;13.136;2023-04-01T03:34:56;97631.50;;;12.18;65.37
54329;BME280;40710;51.120;13.136;2023-04-01T03:37:20;97631.97;;;12.43;65.21
54329;BME280;40710;51.120;13.136;2023-04-01T03:39:45;97629.09;;;12.56;64.31
54329;BME280;40710;51.120;13.136;2023-04-01T03:42:10;97649.22;;;11.54;66.66
54329;BME280;40710;51.120;13.136;2023-04-01T03:44:34;97643.00;;;12.67;65.60
54329;BME280;40710;51.120;13.136;2023-04-01T03:46:59;97642.78;;;11.68;66.05
54329;BME280;40710;51.120;13.136;2023-04-01T03:49:24;97647.13;;;11.79;66.30
54329;BME280;40710;51.120;13.136;2023-04-01T03:51:49;97650.97;;;11.96;65.56
54329;BME280;40710;51.120;13.136;2023-04-01T03:54:13;97663.56;;;11.71;66.03
54329;BME280;40710;51.120;13.136;2023-04-01T03:56:38;97660.66;;;11.44;66.62
54329;BME280;40710;51.120;13.136;2023-04-01T03:59:06;97643.31;;;12.34;64.21
54329;BME280;40710;51.120;13.136;2023-04-01T04:01:31;97673.75;;;11.86;65.64
54329;BME280;40710;51.120;13.136;2023-04-01T04:03:56;97648.09;;;12.09;64.77
54329;BME280;40710;51.120;13.136;2023-04-01T04:06:20;97655.06;;;12.20;64.43
54329;BME280;40710;51.120;13.136;2023-04-01T04:08:45;97659.63;;;12.08;65.17
54329;BME280;40710;51.120;13.136;2023-04-01T04:11:10;97660.22;;;12.21;64.86
54329;BME280;40710;51.120;13.136;2023-04-01T04:13:35;97652.81;;;11.75;65.46
54329;BME280;40710;51.120;13.136;2023-04-01T04:16:00;97661.47;;;11.65;65.44
54329;BME280;40710;51.120;13.136;2023-04-01T04:18:24;97668.19;;;11.58;66.48
54329;BME280;40710;51.120;13.136;2023-04-01T04:20:49;97663.03;;;11.78;66.37
54329;BME280;40710;51.120;13.136;2023-04-01T04:23:15;97675.59;;;11.22;67.21
54329;BME280;40710;51.120;13.136;2023-04-01T04:25:40;97670.34;;;12.26;65.39
54329;BME280;40710;51.120;13.136;2023-04-01T04:28:04;97669.47;;;11.64;65.95
54329;BME280;40710;51.120;13.136;2023-04-01T04:30:29;97675.50;;;11.97;66.18
54329;BME280;40710;51.120;13.136;2023-04-01T04:32:53;97671.91;;;12.48;64.88
54329;BME280;40710;51.120;13.136;2023-04-01T04:35:18;97674.69;;;12.37;65.91
54329;BME280;40710;51.120;13.136;2023-04-01T04:37:42;97684.13;;;11.57;66.86
54329;BME280;40710;51.120;13.136;2023-04-01T04:40:07;97674.81;;;12.35;64.36
54329;BME280;40710;51.120;13.136;2023-04-01T04:42:32;97678.81;;;12.29;65.26
54329;BME280;40710;51.120;13.136;2023-04-01T04:44:56;97692.69;;;11.38;67.51
54329;BME280;40710;51.120;13.136;2023-04-01T04:47:21;97684.34;;;12.26;66.38
54329;BME280;40710;51.120;13.136;2023-04-01T04:49:45;97682.84;;;12.34;65.55
54329;BME280;40710;51.120;13.136;2023-04-01T04:52:10;97681.94;;;12.54;65.17
54329;BME280;40710;51.120;13.136;2023-04-01T04:54:35;97680.63;;;12.29;65.00
54329;BME280;40710;51.120;13.136;2023-04-01T04:57:00;97692.53;;;11.71;66.67
54329;BME280;40710;51.120;13.136;2023-04-01T04:59:24;97690.78;;;12.03;67.78
54329;BME280;40710;51.120;13.136;2023-04-01T05:01:49;97677.56;;;13.03;64.04
54329;BME280;40710;51.120;13.136;2023-04-01T05:04:14;97684.56;;;12.64;64.22
54329;BME280;40710;51.120;13.136;2023-04-01T05:06:38;97682.66;;;12.95;63.71
54329;BME280;40710;51.120;13.136;2023-04-01T05:09:03;97685.28;;;12.76;63.98
54329;BME280;40710;51.120;13.136;2023-04-01T05:11:28;97684.44;;;12.65;64.32
54329;BME280;40710;51.120;13.136;2023-04-01T05:13:53;97695.25;;;12.53;64.51
54329;BME280;40710;51.120;13.136;2023-04-01T05:16:19;97710.13;;;12.23;66.60
54329;BME280;40710;51.120;13.136;2023-04-01T05:18:45;97708.66;;;11.57;67.63
54329;BME280;40710;51.120;13.136;2023-04-01T05:21:12;97700.50;;;12.12;65.87
54329;BME280;40710;51.120;13.136;2023-04-01T05:23:37;97694.56;;;12.60;64.55
54329;BME280;40710;51.120;13.136;2023-04-01T05:26:07;97694.06;;;12.76;64.18
54329;BME280;40710;51.120;13.136;2023-04-01T05:28:32;97683.31;;;12.58;63.40
54329;BME280;40710;51.120;13.136;2023-04-01T05:30:59;97687.41;;;12.82;63.75
54329;BME280;40710;51.120;13.136;2023-04-01T05:33:25;97690.31;;;12.98;63.28
54329;BME280;40710;51.120;13.136;2023-04-01T05:35:49;97709.91;;;11.63;66.87
54329;BME280;40710;51.120;13.136;2023-04-01T05:38:14;97696.00;;;13.03;63.39
54329;BME280;40710;51.120;13.136;2023-04-01T05:40:38;97697.38;;;12.88;63.54
54329;BME280;40710;51.120;13.136;2023-04-01T05:43:03;97706.22;;;12.17;64.24
54329;BME280;40710;51.120;13.136;2023-04-01T05:45:28;97703.97;;;12.43;63.86
54329;BME280;40710;51.120;13.136;2023-04-01T05:47:52;97713.81;;;12.10;66.21
54329;BME280;40710;51.120;13.136;2023-04-01T05:50:17;97699.72;;;12.72;63.45
54329;BME280;40710;51.120;13.136;2023-04-01T05:52:42;97703.28;;;12.51;64.63
54329;BME280;40710;51.120;13.136;2023-04-01T05:55:06;97701.84;;;12.97;62.98
54329;BME280;40710;51.120;13.136;2023-04-01T05:57:31;97696.28;;;13.30;62.03
54329;BME280;40710;51.120;13.136;2023-04-01T05:59:56;97709.00;;;12.76;63.90
54329;BME280;40710;51.120;13.136;2023-04-01T06:02:20;97694.78;;;13.27;61.76
54329;BME280;40710;51.120;13.136;2023-04-01T06:04:46;97696.28;;;13.00;61.91
54329;BME280;40710;51.120;13.136;2023-04-01T06:07:15;97705.34;;;12.07;64.34
54329;BME280;40710;51.120;13.136;2023-04-01T06:09:40;97701.16;;;13.15;62.58
54329;BME280;40710;51.120;13.136;2023-04-01T06:12:29;97699.06;;;13.09;62.11
54329;BME280;40710;51.120;13.136;2023-04-01T06:15:18;97699.59;;;13.02;61.62
54329;BME280;40710;51.120;13.136;2023-04-01T06:26:35;97709.31;;;12.82;61.81
54329;BME280;40710;51.120;13.136;2023-04-01T06:29:19;97708.78;;;13.18;61.61
54329;BME280;40710;51.120;13.136;2023-04-01T06:32:05;97713.50;;;12.85;63.21
54329;BME280;40710;51.120;13.136;2023-04-01T06:37:46;97715.09;;;12.66;63.03
54329;BME280;40710;51.120;13.136;2023-04-01T06:40:22;97714.75;;;13.00;61.79
54329;BME280;40710;51.120;13.136;2023-04-01T06:43:09;97720.56;;;12.94;61.67
54329;BME280;40710;51.120;13.136;2023-04-01T06:46:01;97710.72;;;13.16;61.57
54329;BME280;40710;51.120;13.136;2023-04-01T06:51:49;97724.91;;;12.14;63.44
54329;BME280;40710;51.120;13.136;2023-04-01T06:54:58;97718.78;;;13.24;60.57
54329;BME280;40710;51.120;13.136;2023-04-01T07:00:16;97724.53;;;12.59;61.68
54329;BME280;40710;51.120;13.136;2023-04-01T07:03:23;97704.88;;;13.71;58.96
54329;BME280;40710;51.120;13.136;2023-04-01T07:05:51;97726.94;;;12.82;60.67
54329;BME280;40710;51.120;13.136;2023-04-01T07:08:29;97719.38;;;13.57;59.13
54329;BME280;40710;51.120;13.136;2023-04-01T07:11:02;97720.75;;;13.41;59.54
54329;BME280;40710;51.120;13.136;2023-04-01T07:16:13;97732.41;;;13.10;60.74
54329;BME280;40710;51.120;13.136;2023-04-01T07:19:18;97731.44;;;13.50;60.49
54329;BME280;40710;51.120;13.136;2023-04-01T07:21:54;97719.00;;;13.99;58.59
54329;BME280;40710;51.120;13.136;2023-04-01T07:24:32;97737.00;;;13.27;59.84
54329;BME280;40710;51.120;13.136;2023-04-01T07:26:59;97761.16;;;12.32;62.30
54329;BME280;40710;51.120;13.136;2023-04-01T07:29:25;97748.50;;;12.56;61.91
54329;BME280;40710;51.120;13.136;2023-04-01T07:40:24;97747.97;;;13.71;60.64
54329;BME280;40710;51.120;13.136;2023-04-01T07:43:14;97759.66;;;12.70;61.77
54329;BME280;40710;51.120;13.136;2023-04-01T07:48:37;97754.72;;;13.25;59.80
54329;BME280;40710;51.120;13.136;2023-04-01T07:51:20;97754.34;;;13.49;59.53
54329;BME280;40710;51.120;13.136;2023-04-01T07:56:34;97772.69;;;13.31;59.82
54329;BME280;40710;51.120;13.136;2023-04-01T07:59:20;97762.56;;;13.56;60.27
54329;BME280;40710;51.120;13.136;2023-04-01T08:04:55;97783.75;;;13.25;60.86
54329;BME280;40710;51.120;13.136;2023-04-01T08:07:26;97763.22;;;13.77;59.67
54329;BME280;40710;51.120;13.136;2023-04-01T08:10:20;97760.63;;;14.90;57.41
54329;BME280;40710;51.120;13.136;2023-04-01T08:16:06;97762.00;;;14.56;57.36
54329;BME280;40710;51.120;13.136;2023-04-01T08:19:15;97762.69;;;15.14;56.93
54329;BME280;40710;51.120;13.136;2023-04-01T08:21:49;97755.91;;;15.29;56.30
54329;BME280;40710;51.120;13.136;2023-04-01T08:24:33;97779.38;;;14.31;58.75
54329;BME280;40710;51.120;13.136;2023-04-01T08:27:03;97776.56;;;13.76;59.73
54329;BME280;40710;51.120;13.136;2023-04-01T08:29:59;97776.81;;;14.02;59.63
54329;BME280;40710;51.120;13.136;2023-04-01T08:32:34;97777.78;;;14.86;57.75
54329;BME280;40710;51.120;13.136;2023-04-01T08:35:21;97778.47;;;13.93;59.02
54329;BME280;40710;51.120;13.136;2023-04-01T08:37:54;97783.16;;;14.29;59.63
54329;BME280;40710;51.120;13.136;2023-04-01T08:40:55;97771.25;;;14.43;58.05
54329;BME280;40710;51.120;13.136;2023-04-01T08:43:42;97780.94;;;14.14;59.16
54329;BME280;40710;51.120;13.136;2023-04-01T08:46:51;97775.91;;;14.96;57.02
54329;BME280;40710;51.120;13.136;2023-04-01T08:55:28;97771.94;;;15.10;57.58
54329;BME280;40710;51.120;13.136;2023-04-01T09:01:37;97789.03;;;13.93;58.80
54329;BME280;40710;51.120;13.136;2023-04-01T09:04:20;97792.13;;;13.40;60.38
54329;BME280;40710;51.120;13.136;2023-04-01T09:09:55;97777.09;;;13.79;58.23
54329;BME280;40710;51.120;13.136;2023-04-01T09:18:38;97778.47;;;14.03;57.48
54329;BME280;40710;51.120;13.136;2023-04-01T09:21:31;97777.13;;;14.36;57.61
54329;BME280;40710;51.120;13.136;2023-04-01T09:27:18;97779.16;;;14.52;57.90
54329;BME280;40710;51.120;13.136;2023-04-01T09:35:42;97770.00;;;15.48;55.47
54329;BME280;40710;51.120;13.136;2023-04-01T09:38:38;97790.28;;;14.09;58.04
54329;BME280;40710;51.120;13.136;2023-04-01T09:41:31;97765.34;;;15.32;55.73
54329;BME280;40710;51.120;13.136;2023-04-01T09:55:33;97793.06;;;14.54;57.13
54329;BME280;40710;51.120;13.136;2023-04-01T10:04:31;97767.03;;;16.39;51.38
54329;BME280;40710;51.120;13.136;2023-04-01T10:07:14;97774.72;;;15.98;53.40
54329;BME280;40710;51.120;13.136;2023-04-01T10:10:07;97792.81;;;15.13;54.77
54329;BME280;40710;51.120;13.136;2023-04-01T10:18:45;97786.00;;;15.28;55.12
54329;BME280;40710;51.120;13.136;2023-04-01T10:24:32;97777.63;;;15.87;54.20
54329;BME280;40710;51.120;13.136;2023-04-01T10:30:24;97781.31;;;15.58;53.78
54329;BME280;40710;51.120;13.136;2023-04-01T10:52:57;97816.03;;;14.44;56.96
54329;BME280;40710;51.120;13.136;2023-04-01T10:55:53;97798.06;;;15.59;56.07
54329;BME280;40710;51.120;13.136;2023-04-01T11:07:08;97813.72;;;14.79;57.33
54329;BME280;40710;51.120;13.136;2023-04-01T11:12:59;97806.28;;;14.92;57.56
54329;BME280;40710;51.120;13.136;2023-04-01T11:19:19;97790.69;;;15.70;55.17
54329;BME280;40710;51.120;13.136;2023-04-01T11:22:06;97800.09;;;15.29;57.21
54329;BME280;40710;51.120;13.136;2023-04-01T11:25:29;97789.94;;;16.22;54.84
54329;BME280;40710;51.120;13.136;2023-04-01T11:27:51;97778.88;;;16.61;53.22
54329;BME280;40710;51.120;13.136;2023-04-01T11:30:22;97778.72;;;16.63;53.19
54329;BME280;40710;51.120;13.136;2023-04-01T11:33:02;97783.06;;;16.64;53.54
54329;BME280;40710;51.120;13.136;2023-04-01T11:36:10;97784.44;;;16.42;53.34
54329;BME280;40710;51.120;13.136;2023-04-01T11:44:18;97790.53;;;16.34;53.54
54329;BME280;40710;51.120;13.136;2023-04-01T11:49:47;97784.63;;;16.49;53.75
54329;BME280;40710;51.120;13.136;2023-04-01T11:55:25;97793.22;;;16.77;53.68
54329;BME280;40710;51.120;13.136;2023-04-01T12:04:00;97784.47;;;16.85;50.12
54329;BME280;40710;51.120;13.136;2023-04-01T12:06:50;97794.72;;;16.45;52.53
54329;BME280;40710;51.120;13.136;2023-04-01T12:15:17;97812.56;;;14.53;53.69
54329;BME280;40710;51.120;13.136;2023-04-01T12:20:50;97818.44;;;15.76;55.05
54329;BME280;40710;51.120;13.136;2023-04-01T12:23:45;97809.16;;;15.98;53.89
54329;BME280;40710;51.120;13.136;2023-04-01T12:29:44;97802.97;;;17.03;51.92
54329;BME280;40710;51.120;13.136;2023-04-01T12:32:39;97789.47;;;18.12;50.52
54329;BME280;40710;51.120;13.136;2023-04-01T12:43:48;97787.13;;;17.27;50.45
54329;BME280;40710;51.120;13.136;2023-04-01T12:46:57;97795.75;;;17.29;50.91
54329;BME280;40710;51.120;13.136;2023-04-01T12:52:25;97789.03;;;17.09;48.89
54329;BME280;40710;51.120;13.136;2023-04-01T12:55:18;97802.59;;;16.89;48.28
54329;BME280;40710;51.120;13.136;2023-04-01T13:00:55;97799.56;;;18.42;45.36
54329;BME280;40710;51.120;13.136;2023-04-01T13:06:36;97820.25;;;17.15;48.13
54329;BME280;40710;51.120;13.136;2023-04-01T13:09:21;97831.63;;;16.38;48.29
54329;BME280;40710;51.120;13.136;2023-04-01T13:20:35;97830.72;;;17.16;48.26
54329;BME280;40710;51.120;13.136;2023-04-01T13:23:16;97825.72;;;17.13;47.80
54329;BME280;40710;51.120;13.136;2023-04-01T13:26:01;97831.81;;;16.71;48.20
54329;BME280;40710;51.120;13.136;2023-04-01T13:28:37;97858.13;;;16.12;52.86
54329;BME280;40710;51.120;13.136;2023-04-01T13:31:15;97855.75;;;16.27;53.42
54329;BME280;40710;51.120;13.136;2023-04-01T13:34:09;97851.00;;;16.65;52.71
54329;BME280;40710;51.120;13.136;2023-04-01T13:44:40;97851.50;;;16.34;52.20
54329;BME280;40710;51.120;13.136;2023-04-01T13:47:24;97854.03;;;16.70;51.86
54329;BME280;40710;51.120;13.136;2023-04-01T13:50:23;97857.91;;;16.05;52.14
54329;BME280;40710;51.120;13.136;2023-04-01T13:53:04;97864.91;;;16.59;52.24
54329;BME280;40710;51.120;13.136;2023-04-01T13:56:00;97868.00;;;15.74;52.96
54329;BME280;40710;51.120;13.136;2023-04-01T13:58:56;97862.56;;;16.30;52.25
54329;BME280;40710;51.120;13.136;2023-04-01T14:04:34;97864.25;;;16.13;52.85
54329;BME280;40710;51.120;13.136;2023-04-01T14:07:32;97888.53;;;14.99;55.41
54329;BME280;40710;51.120;13.136;2023-04-01T14:10:05;97881.28;;;15.28;55.04
54329;BME280;40710;51.120;13.136;2023-04-01T14:15:42;97889.00;;;15.67;54.96
54329;BME280;40710;51.120;13.136;2023-04-01T14:21:46;97887.19;;;16.04;55.52
54329;BME280;40710;51.120;13.136;2023-04-01T14:27:06;97877.91;;;16.70;53.77
54329;BME280;40710;51.120;13.136;2023-04-01T14:32:57;97907.56;;;15.02;58.19
54329;BME280;40710;51.120;13.136;2023-04-01T14:35:38;97892.50;;;15.40;55.67
54329;BME280;40710;51.120;13.136;2023-04-01T14:38:24;97901.53;;;14.82;57.82
54329;BME280;40710;51.120;13.136;2023-04-01T14:41:10;97902.00;;;15.61;55.99
54329;BME280;40710;51.120;13.136;2023-04-01T14:43:53;97903.94;;;15.13;56.71
54329;BME280;40710;51.120;13.136;2023-04-01T14:49:35;97890.69;;;15.86;54.02
54329;BME280;40710;51.120;13.136;2023-04-01T14:54:44;97892.66;;;15.39;55.08
54329;BME280;40710;51.120;13.136;2023-04-01T14:57:30;97885.44;;;16.31;53.36
54329;BME280;40710;51.120;13.136;2023-04-01T15:08:14;97890.78;;;16.39;52.75
54329;BME280;40710;51.120;13.136;2023-04-01T15:11:02;97895.38;;;16.11;53.53
54329;BME280;40710;51.120;13.136;2023-04-01T15:16:26;97896.94;;;16.66;51.95
54329;BME280;40710;51.120;13.136;2023-04-01T15:25:22;97914.06;;;15.45;55.36
54329;BME280;40710;51.120;13.136;2023-04-01T15:28:14;97917.25;;;14.84;56.97
54329;BME280;40710;51.120;13.136;2023-04-01T15:34:09;97917.59;;;15.64;55.86
54329;BME280;40710;51.120;13.136;2023-04-01T15:36:53;97917.16;;;15.41;54.95
54329;BME280;40710;51.120;13.136;2023-04-01T15:42:36;97915.44;;;15.49;55.39
54329;BME280;40710;51.120;13.136;2023-04-01T15:54:07;97922.41;;;15.78;55.21
54329;BME280;40710;51.120;13.136;2023-04-01T15:59:50;97942.72;;;14.94;57.47
54329;BME280;40710;51.120;13.136;2023-04-01T16:05:33;97945.53;;;14.73;57.55
54329;BME280;40710;51.120;13.136;2023-04-01T16:08:14;97944.25;;;15.53;56.54
54329;BME280;40710;51.120;13.136;2023-04-01T16:11:08;97932.75;;;16.07;54.54
54329;BME280;40710;51.120;13.136;2023-04-01T16:13:40;97952.25;;;15.15;57.58
54329;BME280;40710;51.120;13.136;2023-04-01T16:19:03;97946.09;;;15.98;55.47
54329;BME280;40710;51.120;13.136;2023-04-01T16:21:51;97959.03;;;15.27;56.87
54329;BME280;40710;51.120;13.136;2023-04-01T16:24:24;97952.22;;;15.98;54.86
54329;BME280;40710;51.120;13.136;2023-04-01T16:27:09;97944.75;;;16.12;54.90
54329;BME280;40710;51.120;13.136;2023-04-01T16:29:56;97957.00;;;15.95;55.28
54329;BME280;40710;51.120;13.136;2023-04-01T16:32:41;97949.13;;;16.21;54.76
54329;BME280;40710;51.120;13.136;2023-04-01T16:35:28;97957.00;;;15.95;54.99
54329;BME280;40710;51.120;13.136;2023-04-01T16:38:18;97956.25;;;16.38;54.37
54329;BME280;40710;51.120;13.136;2023-04-01T16:41:29;97968.97;;;15.71;55.88
54329;BME280;40710;51.120;13.136;2023-04-01T16:43:57;97969.31;;;15.86;55.47
54329;BME280;40710;51.120;13.136;2023-04-01T16:46:43;97973.19;;;15.92;55.48
54329;BME280;40710;51.120;13.136;2023-04-01T16:54:36;97978.59;;;16.18;55.04
54329;BME280;40710;51.120;13.136;2023-04-01T16:59:37;97986.31;;;16.29;55.81
54329;BME280;40710;51.120;13.136;2023-04-01T17:07:33;97999.03;;;16.07;56.41
54329;BME280;40710;51.120;13.136;2023-04-01T17:10:26;98006.16;;;15.79;57.28
54329;BME280;40710;51.120;13.136;2023-04-01T17:13:33;98011.66;;;15.68;57.33
54329;BME280;40710;51.120;13.136;2023-04-01T17:19:56;98008.78;;;15.89;56.67
54329;BME280;40710;51.120;13.136;2023-04-01T17:22:31;98017.22;;;15.75;57.40
54329;BME280;40710;51.120;13.136;2023-04-01T17:25:09;98016.34;;;16.02;57.03
54329;BME280;40710;51.120;13.136;2023-04-01T17:27:59;98026.25;;;15.72;58.14
54329;BME280;40710;51.120;13.136;2023-04-01T17:33:35;98028.38;;;15.96;57.15
54329;BME280;40710;51.120;13.136;2023-04-01T17:36:18;98031.22;;;16.13;57.28
54329;BME280;40710;51.120;13.136;2023-04-01T17:41:35;98045.09;;;15.69;58.70
54329;BME280;40710;51.120;13.136;2023-04-01T17:44:51;98052.97;;;15.88;58.91
54329;BME280;40710;51.120;13.136;2023-04-01T17:47:43;98051.38;;;15.68;58.88
54329;BME280;40710;51.120;13.136;2023-04-01T17:52:56;98061.69;;;15.71;59.49
54329;BME280;40710;51.120;13.136;2023-04-01T17:58:21;98074.06;;;15.43;59.96
54329;BME280;40710;51.120;13.136;2023-04-01T18:01:14;98072.31;;;15.61;59.52
54329;BME280;40710;51.120;13.136;2023-04-01T18:04:05;98082.31;;;15.67;59.67
54329;BME280;40710;51.120;13.136;2023-04-01T18:06:35;98082.56;;;15.74;59.36
54329;BME280;40710;51.120;13.136;2023-04-01T18:09:19;98076.47;;;16.29;58.19
54329;BME280;40710;51.120;13.136;2023-04-01T18:12:10;98089.63;;;15.93;58.85
54329;BME280;40710;51.120;13.136;2023-04-01T18:23:23;98112.72;;;15.63;61.31
54329;BME280;40710;51.120;13.136;2023-04-01T18:26:01;98118.94;;;15.25;62.49
54329;BME280;40710;51.120;13.136;2023-04-01T18:28:38;98123.03;;;15.57;61.53
54329;BME280;40710;51.120;13.136;2023-04-01T18:31:11;98112.56;;;15.75;61.43
54329;BME280;40710;51.120;13.136;2023-04-01T18:34:01;98126.22;;;15.80;61.03
54329;BME280;40710;51.120;13.136;2023-04-01T18:39:17;98142.56;;;15.56;62.08
54329;BME280;40710;51.120;13.136;2023-04-01T18:42:29;98129.16;;;15.77;60.97
54329;BME280;40710;51.120;13.136;2023-04-01T18:45:14;98135.84;;;15.61;61.59
54329;BME280;40710;51.120;13.136;2023-04-01T18:48:15;98141.41;;;15.68;61.36
54329;BME280;40710;51.120;13.136;2023-04-01T18:50:43;98151.59;;;15.63;61.47